Weather at Bram Fischer International Airport

Public forecast

Using degrees Celsius for public forecast. Weather courtesy of forecast.io.

Current aviation weather report (METAR) for Bram Fischer International Airport

2024/05/28 03:00 (retrieved 50 minutes ago)

FABL 280300Z VRB01KT CAVOK 01/M01 Q1029 NOSIG

Closest aviation forecast (TAF) to Bram Fischer International Airport

Forecast is more than 6 hours old.

Closest forecast is Maputo Airport, 384.3 nm (711.7 km) ENE.

2024/05/27 18:00 (retrieved 10 hours ago)

TAF FQMA 271600Z 2718/2824 17006KT CAVOK TX26/2813Z TN18/2802Z BECMG 2800/2802 24007KT PROB30 TEMPO 2800/2806 3000 BR SCT005 BECMG 2813/2815 10010KT BECMG 2818/2820 06007KT